Wetterdaten: Montag, 24.11.2014
Datum Zeit Temperatur Luftfeuchte Luftdruck Regen Wind Richtung Richtung Taupunkt Windchill Windben
24.11.2014 00:00 2,7 C 97 % 1022,2 hPa 0,0 l/m 0,0 km/h (0 Bft) SO 135 2,3 C 7,8 C 0,0 km/h (0 Bft)
24.11.2014 00:05 2,6 C 97 % 1022,2 hPa 0,0 l/m 0,0 km/h (0 Bft) SO 135 2,2 C 7,8 C 0,0 km/h (0 Bft)
24.11.2014 00:10 2,6 C 97 % 1022,2 hPa 0,0 l/m 0,0 km/h (0 Bft) SO 135 2,2 C 7,8 C 0,0 km/h (0 Bft)
24.11.2014 00:15 2,9 C 97 % 1022,2 hPa 0,0 l/m 0,0 km/h (0 Bft) SO 135 2,5 C 7,8 C 0,0 km/h (0 Bft)
24.11.2014 00:20 3,0 C 96 % 1022,2 hPa 0,0 l/m 0,0 km/h (0 Bft) SO 135 2,4 C 7,8 C 0,0 km/h (0 Bft)
24.11.2014 00:25 2,7 C 97 % 1022,2 hPa 0,0 l/m 0,0 km/h (0 Bft) SO 135 2,3 C 7,8 C 0,0 km/h (0 Bft)
24.11.2014 00:30 2,7 C 97 % 1022,2 hPa 0,0 l/m 0,0 km/h (0 Bft) SO 135 2,3 C 7,8 C 0,0 km/h (0 Bft)
24.11.2014 00:35 3,2 C 96 % 1022,2 hPa 0,0 l/m 0,0 km/h (0 Bft) SO 135 2,6 C 7,8 C 0,0 km/h (0 Bft)
24.11.2014 00:40 3,0 C 96 % 1022,1 hPa 0,0 l/m 0,0 km/h (0 Bft) SO 135 2,4 C 7,8 C 0,0 km/h (0 Bft)
24.11.2014 00:45 2,9 C 97 % 1022,1 hPa 0,0 l/m 0,0 km/h (0 Bft) SO 135 2,5 C 7,8 C 0,0 km/h (0 Bft)
24.11.2014 00:50 2,9 C 97 % 1022,1 hPa 0,0 l/m 0,0 km/h (0 Bft) SO 135 2,5 C 7,8 C 0,0 km/h (0 Bft)
24.11.2014 00:55 2,8 C 97 % 1022,1 hPa 0,0 l/m 0,0 km/h (0 Bft) SO 135 2,4 C 7,8 C 0,0 km/h (0 Bft)
24.11.2014 01:00 2,9 C 97 % 1022,1 hPa 0,0 l/m 0,0 km/h (0 Bft) SO 135 2,5 C 7,8 C 0,0 km/h (0 Bft)
24.11.2014 01:05 3,2 C 96 % 1022,1 hPa 0,0 l/m 0,0 km/h (0 Bft) SO 135 2,6 C 7,8 C 0,0 km/h (0 Bft)
24.11.2014 01:10 3,0 C 96 % 1022,1 hPa 0,0 l/m 0,0 km/h (0 Bft) SO 135 2,4 C 7,8 C 0,0 km/h (0 Bft)
24.11.2014 01:15 3,2 C 96 % 1022,1 hPa 0,0 l/m 0,0 km/h (0 Bft) SO 135 2,6 C 7,8 C 0,0 km/h (0 Bft)
24.11.2014 01:20 3,2 C 96 % 1022,2 hPa 0,0 l/m 0,0 km/h (0 Bft) SO 135 2,6 C 7,8 C 0,0 km/h (0 Bft)
24.11.2014 01:25 3,1 C 96 % 1022,2 hPa 0,0 l/m 0,0 km/h (0 Bft) SO 135 2,5 C 7,8 C 0,0 km/h (0 Bft)
24.11.2014 01:30 3,1 C 96 % 1022,2 hPa 0,0 l/m 0,0 km/h (0 Bft) SO 135 2,5 C 7,8 C 0,0 km/h (0 Bft)
24.11.2014 01:35 3,3 C 96 % 1022,2 hPa 0,0 l/m 0,0 km/h (0 Bft) SO 135 2,7 C 7,8 C 0,0 km/h (0 Bft)
24.11.2014 01:40 3,3 C 96 % 1022,1 hPa 0,0 l/m 0,0 km/h (0 Bft) SO 135 2,7 C 7,8 C 0,0 km/h (0 Bft)
24.11.2014 01:45 3,5 C 96 % 1022,1 hPa 0,0 l/m 0,0 km/h (0 Bft) SO 135 2,9 C 7,8 C 0,0 km/h (0 Bft)
24.11.2014 01:50 4,6 C 96 % 1022,1 hPa 0,0 l/m 0,0 km/h (0 Bft) SO 135 4,0 C 7,8 C 0,0 km/h (0 Bft)
24.11.2014 01:55 4,2 C 96 % 1022,1 hPa 0,0 l/m 0,0 km/h (0 Bft) SO 135 3,6 C 7,8 C 0,0 km/h (0 Bft)
24.11.2014 02:00 3,9 C 96 % 1022,2 hPa 0,0 l/m 0,0 km/h (0 Bft) SO 135 3,3 C 7,8 C 0,0 km/h (0 Bft)
24.11.2014 02:05 4,0 C 96 % 1022,2 hPa 0,0 l/m 0,0 km/h (0 Bft) SO 135 3,4 C 7,8 C 0,0 km/h (0 Bft)
24.11.2014 02:10 4,1 C 96 % 1022,2 hPa 0,0 l/m 0,0 km/h (0 Bft) SO 135 3,5 C 7,8 C 0,0 km/h (0 Bft)
24.11.2014 02:15 4,7 C 96 % 1022,2 hPa 0,0 l/m 0,0 km/h (0 Bft) SO 135 4,1 C 7,8 C 0,0 km/h (0 Bft)
24.11.2014 02:18 4,9 C 96 % 1022,2 hPa 0,0 l/m 0,0 km/h (0 Bft) SO 135 4,3 C 7,8 C 0,0 km/h (0 Bft)
24.11.2014 02:20 4,9 C 96 % 1022,2 hPa 0,0 l/m 0,0 km/h (0 Bft) SO 135 4,3 C 7,8 C 0,0 km/h (0 Bft)
24.11.2014 02:25 4,7 C 96 % 1022,2 hPa 0,0 l/m 0,0 km/h (0 Bft) SO 135 4,1 C 7,8 C 0,0 km/h (0 Bft)
24.11.2014 02:30 4,5 C 96 % 1022,2 hPa 0,0 l/m 0,0 km/h (0 Bft) SO 135 3,9 C 7,8 C 0,0 km/h (0 Bft)
24.11.2014 02:35 5,0 C 96 % 1022,2 hPa 0,0 l/m 0,0 km/h (0 Bft) SO 135 4,4 C 7,8 C 0,0 km/h (0 Bft)
24.11.2014 02:40 5,4 C 96 % 1022,2 hPa 0,0 l/m 0,0 km/h (0 Bft) SO 135 4,8 C 7,8 C 0,0 km/h (0 Bft)
24.11.2014 02:45 5,7 C 96 % 1022,2 hPa 0,0 l/m 0,0 km/h (0 Bft) SO 135 5,1 C 7,8 C 0,0 km/h (0 Bft)
24.11.2014 02:50 5,9 C 96 % 1022,2 hPa 0,0 l/m 0,0 km/h (0 Bft) SO 135 5,3 C 7,8 C 0,0 km/h (0 Bft)
24.11.2014 02:55 6,5 C 95 % 1022,2 hPa 0,0 l/m 0,0 km/h (0 Bft) SO 135 5,8 C 7,8 C 0,0 km/h (0 Bft)
24.11.2014 03:00 6,6 C 95 % 1022,3 hPa 0,0 l/m 0,0 km/h (0 Bft) SO 135 5,9 C 7,8 C 0,0 km/h (0 Bft)
24.11.2014 03:05 6,3 C 95 % 1022,3 hPa 0,0 l/m 0,0 km/h (0 Bft) SO 135 5,6 C 7,8 C 0,0 km/h (0 Bft)
24.11.2014 03:10 6,1 C 95 % 1022,3 hPa 0,0 l/m 0,0 km/h (0 Bft) SO 135 5,4 C 7,8 C 0,0 km/h (0 Bft)
24.11.2014 03:15 6,3 C 95 % 1022,3 hPa 0,0 l/m 0,0 km/h (0 Bft) SO 135 5,6 C 7,8 C 0,0 km/h (0 Bft)
24.11.2014 03:20 6,3 C 95 % 1022,4 hPa 0,0 l/m 0,0 km/h (0 Bft) SO 135 5,6 C 7,8 C 0,0 km/h (0 Bft)
24.11.2014 03:25 6,3 C 95 % 1022,4 hPa 0,0 l/m 0,0 km/h (0 Bft) SO 135 5,6 C 7,8 C 0,0 km/h (0 Bft)
24.11.2014 03:30 6,5 C 95 % 1022,4 hPa 0,0 l/m 0,0 km/h (0 Bft) SO 135 5,8 C 7,8 C 0,0 km/h (0 Bft)
24.11.2014 03:35 7,3 C 94 % 1022,4 hPa 0,0 l/m 0,0 km/h (0 Bft) SO 135 6,4 C 7,8 C 0,0 km/h (0 Bft)
24.11.2014 03:40 7,4 C 94 % 1022,2 hPa 0,0 l/m 0,0 km/h (0 Bft) SO 135 6,5 C 7,8 C 0,0 km/h (0 Bft)
24.11.2014 03:45 7,4 C 93 % 1022,2 hPa 0,0 l/m 0,0 km/h (0 Bft) SO 135 6,3 C 7,8 C 0,0 km/h (0 Bft)
24.11.2014 03:50 9,7 C 92 % 1022,2 hPa 0,0 l/m 0,0 km/h (0 Bft) SO 135 8,5 C 7,8 C 0,0 km/h (0 Bft)
24.11.2014 03:55 13,8 C 75 % 1022,2 hPa 0,0 l/m 0,0 km/h (0 Bft) SO 135 9,4 C 7,8 C 0,0 km/h (0 Bft)
24.11.2014 04:00 15,5 C 63 % 1022,1 hPa 0,0 l/m 0,0 km/h (0 Bft) SO 135 8,5 C 7,8 C 0,0 km/h (0 Bft)
24.11.2014 04:05 12,5 C 66 % 1022,1 hPa 0,0 l/m 0,0 km/h (0 Bft) SO 135 6,3 C 7,8 C 0,0 km/h (0 Bft)
24.11.2014 04:10 11,0 C 74 % 1022,1 hPa 0,0 l/m 0,0 km/h (0 Bft) SO 135 6,5 C 7,8 C 0,0 km/h (0 Bft)
24.11.2014 04:15 10,4 C 74 % 1022,1 hPa 0,0 l/m 0,0 km/h (0 Bft) SO 135 6,0 C 7,8 C 0,0 km/h (0 Bft)
24.11.2014 04:20 10,1 C 77 % 1021,9 hPa 0,0 l/m 0,0 km/h (0 Bft) SO 135 6,3 C 7,8 C 0,0 km/h (0 Bft)
24.11.2014 04:25 9,7 C 79 % 1021,9 hPa 0,0 l/m 0,0 km/h (0 Bft) SO 135 6,2 C 7,8 C 0,0 km/h (0 Bft)
24.11.2014 04:30 10,3 C 79 % 1021,9 hPa 0,0 l/m 0,0 km/h (0 Bft) SO 135 6,8 C 7,8 C 0,0 km/h (0 Bft)
24.11.2014 04:35 9,7 C 80 % 1021,9 hPa 0,0 l/m 0,0 km/h (0 Bft) SO 135 6,4 C 7,8 C 0,0 km/h (0 Bft)
24.11.2014 04:40 9,6 C 81 % 1021,9 hPa 0,0 l/m 0,0 km/h (0 Bft) SO 135 6,5 C 7,8 C 0,0 km/h (0 Bft)
24.11.2014 04:45 9,9 C 81 % 1021,9 hPa 0,0 l/m 0,0 km/h (0 Bft) SO 135 6,8 C 7,8 C 0,0 km/h (0 Bft)
24.11.2014 04:50 9,0 C 80 % 1021,9 hPa 0,0 l/m 0,0 km/h (0 Bft) SO 135 5,7 C 7,8 C 0,0 km/h (0 Bft)
24.11.2014 04:55 8,3 C 81 % 1021,9 hPa 0,0 l/m 0,0 km/h (0 Bft) SO 135 5,2 C 7,8 C 0,0 km/h (0 Bft)
24.11.2014 05:00 8,3 C 83 % 1022,1 hPa 0,0 l/m 0,0 km/h (0 Bft) SO 135 5,6 C 7,8 C 0,0 km/h (0 Bft)
24.11.2014 05:05 8,4 C 84 % 1022,1 hPa 0,0 l/m 0,0 km/h (0 Bft) SO 135 5,9 C 7,8 C 0,0 km/h (0 Bft)
24.11.2014 05:10 8,4 C 85 % 1022,1 hPa 0,0 l/m 0,0 km/h (0 Bft) SO 135 6,0 C 7,8 C 0,0 km/h (0 Bft)
24.11.2014 05:15 8,4 C 86 % 1022,1 hPa 0,0 l/m 0,0 km/h (0 Bft) SO 135 6,2 C 7,8 C 0,0 km/h (0 Bft)
24.11.2014 05:18 8,3 C 86 % 1022,2 hPa 0,0 l/m 0,0 km/h (0 Bft) SO 135 6,1 C 7,8 C 0,0 km/h (0 Bft)
24.11.2014 05:20 8,3 C 86 % 1022,2 hPa 0,0 l/m 0,0 km/h (0 Bft) SO 135 6,1 C 7,8 C 0,0 km/h (0 Bft)
24.11.2014 05:25 8,3 C 86 % 1022,2 hPa 0,0 l/m 0,0 km/h (0 Bft) SO 135 6,1 C 7,8 C 0,0 km/h (0 Bft)
24.11.2014 05:30 8,4 C 86 % 1022,2 hPa 0,0 l/m 0,0 km/h (0 Bft) SO 135 6,2 C 7,8 C 0,0 km/h (0 Bft)
24.11.2014 05:35 8,3 C 87 % 1022,2 hPa 0,0 l/m 0,0 km/h (0 Bft) SO 135 6,3 C 7,8 C 0,0 km/h (0 Bft)
24.11.2014 05:40 8,2 C 87 % 1022,1 hPa 0,0 l/m 0,0 km/h (0 Bft) SO 135 6,2 C 7,8 C 0,0 km/h (0 Bft)
24.11.2014 05:45 8,0 C 87 % 1022,1 hPa 0,0 l/m 0,0 km/h (0 Bft) SO 135 6,0 C 7,8 C 0,0 km/h (0 Bft)
24.11.2014 05:50 8,1 C 87 % 1022,1 hPa 0,0 l/m 0,0 km/h (0 Bft) SO 135 6,1 C 7,8 C 0,0 km/h (0 Bft)
24.11.2014 05:55 8,2 C 88 % 1022,1 hPa 0,0 l/m 0,0 km/h (0 Bft) SO 135 6,3 C 7,8 C 0,0 km/h (0 Bft)
24.11.2014 06:00 8,0 C 88 % 1022,1 hPa 0,0 l/m 0,0 km/h (0 Bft) SO 135 6,1 C 7,8 C 0,0 km/h (0 Bft)
24.11.2014 06:05 8,0 C 88 % 1022,1 hPa 0,0 l/m 0,0 km/h (0 Bft) SO 135 6,1 C 7,8 C 0,0 km/h (0 Bft)
24.11.2014 06:10 8,1 C 88 % 1022,1 hPa 0,0 l/m 0,0 km/h (0 Bft) SO 135 6,2 C 7,8 C 0,0 km/h (0 Bft)
24.11.2014 06:15 8,3 C 88 % 1022,1 hPa 0,0 l/m 0,0 km/h (0 Bft) SO 135 6,4 C 7,8 C 0,0 km/h (0 Bft)
24.11.2014 06:20 8,1 C 88 % 1022,1 hPa 0,0 l/m 0,0 km/h (0 Bft) SO 135 6,2 C 7,8 C 0,0 km/h (0 Bft)
24.11.2014 06:25 8,1 C 88 % 1022,1 hPa 0,0 l/m 0,0 km/h (0 Bft) SO 135 6,2 C 7,8 C 0,0 km/h (0 Bft)
24.11.2014 06:30 8,2 C 88 % 1022,1 hPa 0,0 l/m 0,0 km/h (0 Bft) SO 135 6,3 C 7,8 C 0,0 km/h (0 Bft)
24.11.2014 06:35 8,1 C 88 % 1022,1 hPa 0,0 l/m 0,0 km/h (0 Bft) SO 135 6,2 C 7,8 C 0,0 km/h (0 Bft)
24.11.2014 06:40 7,8 C 88 % 1022,4 hPa 0,0 l/m 0,0 km/h (0 Bft) SO 135 5,9 C 7,8 C 0,0 km/h (0 Bft)
24.11.2014 06:45 7,9 C 88 % 1022,4 hPa 0,0 l/m 0,0 km/h (0 Bft) SO 135 6,0 C 7,8 C 0,0 km/h (0 Bft)
24.11.2014 06:50 7,4 C 87 % 1022,4 hPa 0,0 l/m 0,0 km/h (0 Bft) SO 135 5,4 C 7,8 C 0,0 km/h (0 Bft)
24.11.2014 06:55 7,0 C 87 % 1022,4 hPa 0,0 l/m 0,0 km/h (0 Bft) SO 135 5,0 C 7,8 C 0,0 km/h (0 Bft)
24.11.2014 07:00 7,1 C 87 % 1022,5 hPa 0,0 l/m 0,0 km/h (0 Bft) SO 135 5,1 C 7,8 C 0,0 km/h (0 Bft)
24.11.2014 07:05 6,8 C 88 % 1022,5 hPa 0,0 l/m 0,0 km/h (0 Bft) SO 135 5,0 C 7,8 C 0,0 km/h (0 Bft)
24.11.2014 07:10 6,8 C 88 % 1022,5 hPa 0,0 l/m 0,0 km/h (0 Bft) SO 135 5,0 C 7,8 C 0,0 km/h (0 Bft)
24.11.2014 07:15 6,6 C 88 % 1022,5 hPa 0,0 l/m 0,0 km/h (0 Bft) SO 135 4,8 C 7,8 C 0,0 km/h (0 Bft)
24.11.2014 07:20 6,4 C 88 % 1022,6 hPa 0,0 l/m 0,0 km/h (0 Bft) SO 135 4,6 C 7,8 C 0,0 km/h (0 Bft)
24.11.2014 07:25 6,2 C 88 % 1022,6 hPa 0,0 l/m 0,0 km/h (0 Bft) SO 135 4,4 C 7,8 C 0,0 km/h (0 Bft)
24.11.2014 07:30 6,6 C 89 % 1022,6 hPa 0,0 l/m 0,0 km/h (0 Bft) SO 135 4,9 C 7,8 C 0,0 km/h (0 Bft)
24.11.2014 07:35 7,1 C 89 % 1022,6 hPa 0,0 l/m 0,0 km/h (0 Bft) SO 135 5,4 C 7,8 C 0,0 km/h (0 Bft)
24.11.2014 07:40 8,1 C 89 % 1022,8 hPa 0,0 l/m 0,0 km/h (0 Bft) SO 135 6,4 C 7,8 C 0,0 km/h (0 Bft)
24.11.2014 07:45 9,3 C 87 % 1022,8 hPa 0,0 l/m 0,0 km/h (0 Bft) SO 135 7,2 C 7,8 C 0,0 km/h (0 Bft)
24.11.2014 07:50 9,1 C 85 % 1022,8 hPa 0,0 l/m 0,0 km/h (0 Bft) SO 135 6,7 C 7,8 C 0,0 km/h (0 Bft)
24.11.2014 07:55 9,1 C 82 % 1022,8 hPa 0,0 l/m 0,0 km/h (0 Bft) SO 135 6,2 C 7,8 C 0,0 km/h (0 Bft)
24.11.2014 08:00 8,5 C 80 % 1022,8 hPa 0,0 l/m 0,0 km/h (0 Bft) SO 135 5,3 C 7,8 C 0,0 km/h (0 Bft)
24.11.2014 08:05 7,2 C 80 % 1022,8 hPa 0,0 l/m 0,0 km/h (0 Bft) SO 135 4,0 C 7,8 C 0,0 km/h (0 Bft)
24.11.2014 08:10 7,1 C 82 % 1022,8 hPa 0,0 l/m 0,0 km/h (0 Bft) SO 135 4,2 C 7,8 C 0,0 km/h (0 Bft)
24.11.2014 08:15 7,2 C 83 % 1022,8 hPa 0,0 l/m 0,0 km/h (0 Bft) SO 135 4,5 C 7,8 C 0,0 km/h (0 Bft)
24.11.2014 08:18 7,3 C 84 % 1022,7 hPa 0,0 l/m 0,0 km/h (0 Bft) SO 135 4,8 C 7,8 C 0,0 km/h (0 Bft)
24.11.2014 08:20 7,3 C 84 % 1022,7 hPa 0,0 l/m 0,0 km/h (0 Bft) SO 135 4,8 C 7,8 C 0,0 km/h (0 Bft)
24.11.2014 08:25 7,6 C 84 % 1022,7 hPa 0,0 l/m 0,0 km/h (0 Bft) SO 135 5,1 C 7,8 C 0,0 km/h (0 Bft)
24.11.2014 08:30 7,7 C 84 % 1022,7 hPa 0,0 l/m 0,0 km/h (0 Bft) SO 135 5,2 C 7,8 C 0,0 km/h (0 Bft)
24.11.2014 08:35 8,0 C 84 % 1022,7 hPa 0,0 l/m 0,0 km/h (0 Bft) SO 135 5,5 C 7,8 C 0,0 km/h (0 Bft)
24.11.2014 08:40 8,2 C 84 % 1023,4 hPa 0,0 l/m 0,0 km/h (0 Bft) SO 135 5,7 C 7,8 C 0,0 km/h (0 Bft)
24.11.2014 08:45 8,3 C 84 % 1023,4 hPa 0,0 l/m 0,0 km/h (0 Bft) SO 135 5,8 C 7,8 C 0,0 km/h (0 Bft)
24.11.2014 08:50 8,4 C 84 % 1023,4 hPa 0,0 l/m 0,0 km/h (0 Bft) SO 135 5,9 C 7,8 C 0,0 km/h (0 Bft)
24.11.2014 08:55 7,9 C 83 % 1023,4 hPa 0,0 l/m 0,0 km/h (0 Bft) SO 135 5,2 C 7,8 C 0,0 km/h (0 Bft)
24.11.2014 09:00 8,1 C 83 % 1023,0 hPa 0,0 l/m 0,0 km/h (0 Bft) SO 135 5,4 C 7,8 C 0,0 km/h (0 Bft)
24.11.2014 09:05 8,3 C 84 % 1023,0 hPa 0,0 l/m 0,0 km/h (0 Bft) SO 135 5,8 C 7,8 C 0,0 km/h (0 Bft)
24.11.2014 09:10 8,3 C 84 % 1023,0 hPa 0,0 l/m 0,0 km/h (0 Bft) SO 135 5,8 C 7,8 C 0,0 km/h (0 Bft)
24.11.2014 09:15 8,7 C 84 % 1023,0 hPa 0,0 l/m 0,0 km/h (0 Bft) SO 135 6,2 C 7,8 C 0,0 km/h (0 Bft)
24.11.2014 09:20 9,3 C 84 % 1023,2 hPa 0,0 l/m 0,0 km/h (0 Bft) SO 135 6,7 C 7,8 C 0,0 km/h (0 Bft)
24.11.2014 09:25 10,2 C 83 % 1023,2 hPa 0,0 l/m 0,0 km/h (0 Bft) SO 135 7,4 C 7,8 C 0,0 km/h (0 Bft)
24.11.2014 09:30 10,4 C 83 % 1023,2 hPa 0,0 l/m 0,0 km/h (0 Bft) SO 135 7,6 C 7,8 C 0,0 km/h (0 Bft)
24.11.2014 09:35 10,6 C 81 % 1023,2 hPa 0,0 l/m 0,0 km/h (0 Bft) SO 135 7,5 C 7,8 C 0,0 km/h (0 Bft)
24.11.2014 09:40 10,7 C 82 % 1023,1 hPa 0,0 l/m 0,0 km/h (0 Bft) SO 135 7,8 C 7,8 C 0,0 km/h (0 Bft)
24.11.2014 09:45 11,0 C 81 % 1023,1 hPa 0,0 l/m 0,0 km/h (0 Bft) SO 135 7,9 C 7,8 C 0,0 km/h (0 Bft)
24.11.2014 09:50 11,1 C 80 % 1023,1 hPa 0,0 l/m 0,0 km/h (0 Bft) SO 135 7,8 C 7,8 C 0,0 km/h (0 Bft)
24.11.2014 09:55 11,4 C 79 % 1023,1 hPa 0,0 l/m 0,0 km/h (0 Bft) SO 135 7,9 C 7,8 C 0,0 km/h (0 Bft)
24.11.2014 10:00 11,6 C 79 % 1023,4 hPa 0,0 l/m 0,0 km/h (0 Bft) SO 135 8,1 C 7,8 C 0,0 km/h (0 Bft)
24.11.2014 10:05 11,9 C 79 % 1023,4 hPa 0,0 l/m 0,0 km/h (0 Bft) SO 135 8,4 C 7,8 C 0,0 km/h (0 Bft)
24.11.2014 10:10 11,9 C 77 % 1023,4 hPa 0,0 l/m 0,0 km/h (0 Bft) SO 135 8,0 C 7,8 C 0,0 km/h (0 Bft)
24.11.2014 10:15 12,0 C 78 % 1023,4 hPa 0,0 l/m 0,0 km/h (0 Bft) SO 135 8,3 C 7,8 C 0,0 km/h (0 Bft)
24.11.2014 10:20 12,0 C 78 % 1023,5 hPa 0,0 l/m 0,0 km/h (0 Bft) SO 135 8,3 C 7,8 C 0,0 km/h (0 Bft)
24.11.2014 10:25 12,1 C 78 % 1023,5 hPa 0,0 l/m 0,0 km/h (0 Bft) SO 135 8,4 C 7,8 C 0,0 km/h (0 Bft)
24.11.2014 10:30 12,4 C 78 % 1023,5 hPa 0,0 l/m 0,0 km/h (0 Bft) SO 135 8,7 C 7,8 C 0,0 km/h (0 Bft)
24.11.2014 10:35 12,5 C 78 % 1023,5 hPa 0,0 l/m 0,0 km/h (0 Bft) SO 135 8,8 C 7,8 C 0,0 km/h (0 Bft)
24.11.2014 10:40 12,5 C 77 % 1023,6 hPa 0,0 l/m 0,0 km/h (0 Bft) SO 135 8,6 C 7,8 C 0,0 km/h (0 Bft)
24.11.2014 10:45 12,5 C 77 % 1023,6 hPa 0,0 l/m 0,0 km/h (0 Bft) SO 135 8,6 C 7,8 C 0,0 km/h (0 Bft)
24.11.2014 10:50 12,4 C 77 % 1023,6 hPa 0,0 l/m 0,0 km/h (0 Bft) SO 135 8,5 C 7,8 C 0,0 km/h (0 Bft)
24.11.2014 10:55 12,3 C 74 % 1023,6 hPa 0,0 l/m 0,0 km/h (0 Bft) SO 135 7,8 C 7,8 C 0,0 km/h (0 Bft)
24.11.2014 11:00 12,1 C 75 % 1023,5 hPa 0,0 l/m 0,0 km/h (0 Bft) SO 135 7,8 C 7,8 C 0,0 km/h (0 Bft)
24.11.2014 11:05 12,3 C 75 % 1023,5 hPa 0,0 l/m 0,0 km/h (0 Bft) SO 135 8,0 C 7,8 C 0,0 km/h (0 Bft)
24.11.2014 11:10 12,0 C 76 % 1023,5 hPa 0,0 l/m 0,0 km/h (0 Bft) SO 135 7,9 C 7,8 C 0,0 km/h (0 Bft)
24.11.2014 11:15 12,4 C 76 % 1023,5 hPa 0,0 l/m 0,0 km/h (0 Bft) SO 135 8,3 C 7,8 C 0,0 km/h (0 Bft)
24.11.2014 11:20 12,6 C 77 % 1023,5 hPa 0,0 l/m 0,0 km/h (0 Bft) SO 135 8,7 C 7,8 C 0,0 km/h (0 Bft)
24.11.2014 11:25 13,1 C 73 % 1023,5 hPa 0,0 l/m 0,0 km/h (0 Bft) SO 135 8,4 C 7,8 C 0,0 km/h (0 Bft)
24.11.2014 11:30 13,6 C 72 % 1023,5 hPa 0,0 l/m 0,0 km/h (0 Bft) SO 135 8,6 C 7,8 C 0,0 km/h (0 Bft)
24.11.2014 11:35 13,7 C 70 % 1023,5 hPa 0,0 l/m 0,0 km/h (0 Bft) SO 135 8,3 C 7,8 C 0,0 km/h (0 Bft)
24.11.2014 11:40 13,6 C 72 % 1023,7 hPa 0,0 l/m 0,0 km/h (0 Bft) SO 135 8,6 C 7,8 C 0,0 km/h (0 Bft)
24.11.2014 11:45 13,3 C 72 % 1023,7 hPa 0,0 l/m 0,0 km/h (0 Bft) SO 135 8,4 C 7,8 C 0,0 km/h (0 Bft)
24.11.2014 11:50 13,2 C 71 % 1023,7 hPa 0,0 l/m 0,0 km/h (0 Bft) SO 135 8,1 C 7,8 C 0,0 km/h (0 Bft)
24.11.2014 11:55 13,2 C 71 % 1023,7 hPa 0,0 l/m 0,0 km/h (0 Bft) SO 135 8,1 C 7,8 C 0,0 km/h (0 Bft)
24.11.2014 12:00 13,2 C 71 % 1023,8 hPa 0,0 l/m 0,0 km/h (0 Bft) SO 135 8,1 C 7,8 C 0,0 km/h (0 Bft)
24.11.2014 12:05 13,6 C 69 % 1023,8 hPa 0,0 l/m 0,0 km/h (0 Bft) SO 135 8,0 C 7,8 C 0,0 km/h (0 Bft)
24.11.2014 12:10 13,7 C 69 % 1023,8 hPa 0,0 l/m 0,0 km/h (0 Bft) SO 135 8,1 C 7,8 C 0,0 km/h (0 Bft)
24.11.2014 12:15 13,8 C 69 % 1023,8 hPa 0,0 l/m 0,0 km/h (0 Bft) SO 135 8,2 C 7,8 C 0,0 km/h (0 Bft)
24.11.2014 12:20 13,6 C 70 % 1024,1 hPa 0,0 l/m 0,0 km/h (0 Bft) SO 135 8,2 C 7,8 C 0,0 km/h (0 Bft)
24.11.2014 12:25 14,0 C 68 % 1024,1 hPa 0,0 l/m 0,0 km/h (0 Bft) SO 135 8,2 C 7,8 C 0,0 km/h (0 Bft)
24.11.2014 12:30 14,1 C 68 % 1024,1 hPa 0,0 l/m 0,0 km/h (0 Bft) SO 135 8,3 C 7,8 C 0,0 km/h (0 Bft)
24.11.2014 12:35 14,3 C 66 % 1024,1 hPa 0,0 l/m 0,0 km/h (0 Bft) SO 135 8,0 C 7,8 C 0,0 km/h (0 Bft)
24.11.2014 12:40 14,4 C 64 % 1024,2 hPa 0,0 l/m 0,0 km/h (0 Bft) SO 135 7,7 C 7,8 C 0,0 km/h (0 Bft)
24.11.2014 12:45 14,4 C 62 % 1024,2 hPa 0,0 l/m 0,0 km/h (0 Bft) SO 135 7,2 C 7,8 C 0,0 km/h (0 Bft)
24.11.2014 12:50 14,0 C 61 % 1024,2 hPa 0,0 l/m 0,0 km/h (0 Bft) SO 135 6,6 C 7,8 C 0,0 km/h (0 Bft)
24.11.2014 12:55 13,6 C 64 % 1024,2 hPa 0,0 l/m 0,0 km/h (0 Bft) SO 135 6,9 C 7,8 C 0,0 km/h (0 Bft)
24.11.2014 13:00 13,5 C 65 % 1024,3 hPa 0,0 l/m 0,0 km/h (0 Bft) SO 135 7,1 C 7,8 C 0,0 km/h (0 Bft)
24.11.2014 13:05 13,6 C 64 % 1024,3 hPa 0,0 l/m 0,0 km/h (0 Bft) SO 135 6,9 C 7,8 C 0,0 km/h (0 Bft)
24.11.2014 13:10 13,7 C 63 % 1024,3 hPa 0,0 l/m 0,0 km/h (0 Bft) SO 135 6,8 C 7,8 C 0,0 km/h (0 Bft)
24.11.2014 13:15 13,8 C 58 % 1024,3 hPa 0,0 l/m 0,0 km/h (0 Bft) SO 135 5,7 C 7,8 C 0,0 km/h (0 Bft)
24.11.2014 13:20 13,7 C 60 % 1024,4 hPa 0,0 l/m 0,0 km/h (0 Bft) SO 135 6,1 C 7,8 C 0,0 km/h (0 Bft)
24.11.2014 13:25 13,7 C 60 % 1024,4 hPa 0,0 l/m 0,0 km/h (0 Bft) SO 135 6,1 C 7,8 C 0,0 km/h (0 Bft)
24.11.2014 13:30 13,8 C 60 % 1024,4 hPa 0,0 l/m 0,0 km/h (0 Bft) SO 135 6,2 C 7,8 C 0,0 km/h (0 Bft)
24.11.2014 13:35 13,8 C 59 % 1024,4 hPa 0,0 l/m 0,0 km/h (0 Bft) SO 135 5,9 C 7,8 C 0,0 km/h (0 Bft)
24.11.2014 13:40 13,8 C 59 % 1024,4 hPa 0,0 l/m 0,0 km/h (0 Bft) SO 135 5,9 C 7,8 C 0,0 km/h (0 Bft)
24.11.2014 13:45 13,5 C 57 % 1024,4 hPa 0,0 l/m 0,0 km/h (0 Bft) SO 135 5,2 C 7,8 C 0,0 km/h (0 Bft)
24.11.2014 13:50 13,4 C 59 % 1024,4 hPa 0,0 l/m 0,0 km/h (0 Bft) SO 135 5,6 C 7,8 C 0,0 km/h (0 Bft)
24.11.2014 13:55 13,8 C 60 % 1024,4 hPa 0,0 l/m 0,0 km/h (0 Bft) SO 135 6,2 C 7,8 C 0,0 km/h (0 Bft)
24.11.2014 14:00 14,0 C 60 % 1024,6 hPa 0,0 l/m 0,0 km/h (0 Bft) SO 135 6,4 C 7,8 C 0,0 km/h (0 Bft)
24.11.2014 14:05 14,0 C 58 % 1024,6 hPa 0,0 l/m 0,0 km/h (0 Bft) SO 135 5,9 C 7,8 C 0,0 km/h (0 Bft)
24.11.2014 14:10 14,3 C 58 % 1024,6 hPa 0,0 l/m 0,0 km/h (0 Bft) SO 135 6,2 C 7,8 C 0,0 km/h (0 Bft)
24.11.2014 14:13 14,3 C 59 % 1024,6 hPa 0,0 l/m 0,0 km/h (0 Bft) SO 135 6,4 C 7,8 C 0,0 km/h (0 Bft)
24.11.2014 14:15 14,3 C 59 % 1024,6 hPa 0,0 l/m 0,0 km/h (0 Bft) SO 135 6,4 C 7,8 C 0,0 km/h (0 Bft)
24.11.2014 14:20 14,3 C 57 % 1024,7 hPa 0,0 l/m 0,0 km/h (0 Bft) SO 135 5,9 C 7,8 C 0,0 km/h (0 Bft)
24.11.2014 14:25 13,8 C 59 % 1024,7 hPa 0,0 l/m 0,0 km/h (0 Bft) SO 135 5,9 C 7,8 C 0,0 km/h (0 Bft)
24.11.2014 14:30 13,6 C 59 % 1024,7 hPa 0,0 l/m 0,0 km/h (0 Bft) SO 135 5,7 C 7,8 C 0,0 km/h (0 Bft)
24.11.2014 14:35 13,2 C 61 % 1024,7 hPa 0,0 l/m 0,0 km/h (0 Bft) SO 135 5,8 C 7,8 C 0,0 km/h (0 Bft)
24.11.2014 14:40 13,0 C 61 % 1024,6 hPa 0,0 l/m 0,0 km/h (0 Bft) SO 135 5,7 C 7,8 C 0,0 km/h (0 Bft)
24.11.2014 14:45 12,6 C 63 % 1024,6 hPa 0,0 l/m 0,0 km/h (0 Bft) SO 135 5,7 C 7,8 C 0,0 km/h (0 Bft)
24.11.2014 14:50 12,5 C 64 % 1024,6 hPa 0,0 l/m 0,0 km/h (0 Bft) SO 135 5,9 C 7,8 C 0,0 km/h (0 Bft)
24.11.2014 14:55 12,3 C 65 % 1024,6 hPa 0,0 l/m 0,0 km/h (0 Bft) SO 135 5,9 C 7,8 C 0,0 km/h (0 Bft)
24.11.2014 15:00 12,3 C 66 % 1024,5 hPa 0,0 l/m 0,0 km/h (0 Bft) SO 135 6,1 C 7,8 C 0,0 km/h (0 Bft)
24.11.2014 15:05 12,4 C 66 % 1024,5 hPa 0,0 l/m 0,0 km/h (0 Bft) SO 135 6,2 C 7,8 C 0,0 km/h (0 Bft)
24.11.2014 15:10 12,4 C 67 % 1024,5 hPa 0,0 l/m 0,0 km/h (0 Bft) SO 135 6,4 C 7,8 C 0,0 km/h (0 Bft)
24.11.2014 15:15 12,4 C 67 % 1024,5 hPa 0,0 l/m 0,0 km/h (0 Bft) SO 135 6,4 C 7,8 C 0,0 km/h (0 Bft)
24.11.2014 15:20 12,2 C 68 % 1024,4 hPa 0,0 l/m 0,0 km/h (0 Bft) SO 135 6,5 C 7,8 C 0,0 km/h (0 Bft)
24.11.2014 15:25 11,7 C 69 % 1024,4 hPa 0,0 l/m 0,0 km/h (0 Bft) SO 135 6,2 C 7,8 C 0,0 km/h (0 Bft)
24.11.2014 15:30 11,2 C 70 % 1024,4 hPa 0,0 l/m 0,0 km/h (0 Bft) SO 135 5,9 C 7,8 C 0,0 km/h (0 Bft)
24.11.2014 15:35 10,7 C 71 % 1024,4 hPa 0,0 l/m 0,0 km/h (0 Bft) SO 135 5,7 C 7,8 C 0,0 km/h (0 Bft)
24.11.2014 15:40 10,6 C 72 % 1023,9 hPa 0,0 l/m 0,0 km/h (0 Bft) SO 135 5,8 C 7,8 C 0,0 km/h (0 Bft)
24.11.2014 15:45 10,4 C 73 % 1023,9 hPa 0,0 l/m 0,0 km/h (0 Bft) SO 135 5,8 C 7,8 C 0,0 km/h (0 Bft)
24.11.2014 15:50 10,0 C 73 % 1023,9 hPa 0,0 l/m 0,0 km/h (0 Bft) SO 135 5,4 C 7,8 C 0,0 km/h (0 Bft)
24.11.2014 15:55 10,2 C 75 % 1023,9 hPa 0,0 l/m 0,0 km/h (0 Bft) SO 135 6,0 C 7,8 C 0,0 km/h (0 Bft)
24.11.2014 16:00 10,5 C 75 % 1023,9 hPa 0,0 l/m 0,0 km/h (0 Bft) SO 135 6,3 C 7,8 C 0,0 km/h (0 Bft)
24.11.2014 16:05 10,5 C 76 % 1023,9 hPa 0,0 l/m 0,0 km/h (0 Bft) SO 135 6,5 C 7,8 C 0,0 km/h (0 Bft)
24.11.2014 16:10 10,4 C 76 % 1023,9 hPa 0,0 l/m 0,0 km/h (0 Bft) SO 135 6,4 C 7,8 C 0,0 km/h (0 Bft)
24.11.2014 16:15 9,8 C 76 % 1023,9 hPa 0,0 l/m 0,0 km/h (0 Bft) SO 135 5,8 C 7,8 C 0,0 km/h (0 Bft)
24.11.2014 16:20 9,5 C 76 % 1023,8 hPa 0,0 l/m 0,0 km/h (0 Bft) SO 135 5,5 C 7,8 C 0,0 km/h (0 Bft)
24.11.2014 16:25 9,6 C 78 % 1023,8 hPa 0,0 l/m 0,0 km/h (0 Bft) SO 135 6,0 C 7,8 C 0,0 km/h (0 Bft)
24.11.2014 16:30 9,7 C 79 % 1023,8 hPa 0,0 l/m 0,0 km/h (0 Bft) SO 135 6,2 C 7,8 C 0,0 km/h (0 Bft)
24.11.2014 16:35 9,1 C 79 % 1023,8 hPa 0,0 l/m 0,0 km/h (0 Bft) SO 135 5,7 C 7,8 C 0,0 km/h (0 Bft)
24.11.2014 16:40 8,3 C 78 % 1023,7 hPa 0,0 l/m 0,0 km/h (0 Bft) SO 135 4,7 C 7,8 C 0,0 km/h (0 Bft)
24.11.2014 16:45 8,1 C 79 % 1023,7 hPa 0,0 l/m 0,0 km/h (0 Bft) SO 135 4,7 C 7,8 C 0,0 km/h (0 Bft)
24.11.2014 16:50 7,7 C 80 % 1023,7 hPa 0,0 l/m 0,0 km/h (0 Bft) SO 135 4,5 C 7,8 C 0,0 km/h (0 Bft)
24.11.2014 16:55 7,3 C 80 % 1023,7 hPa 0,0 l/m 0,0 km/h (0 Bft) SO 135 4,1 C 7,8 C 0,0 km/h (0 Bft)
24.11.2014 17:00 7,6 C 82 % 1023,9 hPa 0,0 l/m 0,0 km/h (0 Bft) SO 135 4,7 C 7,8 C 0,0 km/h (0 Bft)
24.11.2014 17:05 7,3 C 82 % 1023,9 hPa 0,0 l/m 0,0 km/h (0 Bft) SO 135 4,4 C 7,8 C 0,0 km/h (0 Bft)
24.11.2014 17:10 7,3 C 82 % 1023,9 hPa 0,0 l/m 0,0 km/h (0 Bft) SO 135 4,4 C 7,8 C 0,0 km/h (0 Bft)
24.11.2014 17:13 8,0 C 84 % 1023,9 hPa 0,0 l/m 0,0 km/h (0 Bft) SO 135 5,5 C 7,8 C 0,0 km/h (0 Bft)
24.11.2014 17:15 8,0 C 84 % 1023,9 hPa 0,0 l/m 0,0 km/h (0 Bft) SO 135 5,5 C 7,8 C 0,0 km/h (0 Bft)
24.11.2014 17:20 8,2 C 85 % 1023,9 hPa 0,0 l/m 0,0 km/h (0 Bft) SO 135 5,8 C 7,8 C 0,0 km/h (0 Bft)
24.11.2014 17:25 8,2 C 85 % 1023,9 hPa 0,0 l/m 0,0 km/h (0 Bft) SO 135 5,8 C 7,8 C 0,0 km/h (0 Bft)
24.11.2014 17:30 7,7 C 84 % 1023,9 hPa 0,0 l/m 0,0 km/h (0 Bft) SO 135 5,2 C 7,8 C 0,0 km/h (0 Bft)
24.11.2014 17:35 6,2 C 83 % 1023,9 hPa 0,0 l/m 0,0 km/h (0 Bft) SO 135 3,5 C 7,8 C 0,0 km/h (0 Bft)
24.11.2014 17:40 7,1 C 85 % 1024,0 hPa 0,0 l/m 0,0 km/h (0 Bft) SO 135 4,8 C 7,8 C 0,0 km/h (0 Bft)
24.11.2014 17:45 7,7 C 87 % 1024,0 hPa 0,0 l/m 0,0 km/h (0 Bft) SO 135 5,7 C 7,8 C 0,0 km/h (0 Bft)
24.11.2014 17:50 7,8 C 87 % 1024,0 hPa 0,0 l/m 0,0 km/h (0 Bft) SO 135 5,8 C 7,8 C 0,0 km/h (0 Bft)
24.11.2014 17:55 6,5 C 86 % 1024,0 hPa 0,0 l/m 0,0 km/h (0 Bft) SO 135 4,3 C 7,8 C 0,0 km/h (0 Bft)
24.11.2014 18:00 6,1 C 85 % 1024,2 hPa 0,0 l/m 0,0 km/h (0 Bft) SO 135 3,8 C 7,8 C 0,0 km/h (0 Bft)
24.11.2014 18:05 6,6 C 86 % 1024,2 hPa 0,0 l/m 0,0 km/h (0 Bft) SO 135 4,4 C 7,8 C 0,0 km/h (0 Bft)
24.11.2014 18:10 6,0 C 86 % 1024,2 hPa 0,0 l/m 0,0 km/h (0 Bft) SO 135 3,8 C 7,8 C 0,0 km/h (0 Bft)
24.11.2014 18:15 5,6 C 87 % 1024,2 hPa 0,0 l/m 0,0 km/h (0 Bft) SO 135 3,6 C 7,8 C 0,0 km/h (0 Bft)
24.11.2014 18:20 5,3 C 87 % 1024,2 hPa 0,0 l/m 0,0 km/h (0 Bft) SO 135 3,3 C 7,8 C 0,0 km/h (0 Bft)
24.11.2014 18:25 5,2 C 87 % 1024,2 hPa 0,0 l/m 0,0 km/h (0 Bft) SO 135 3,2 C 7,8 C 0,0 km/h (0 Bft)
24.11.2014 18:30 5,0 C 88 % 1024,2 hPa 0,0 l/m 0,0 km/h (0 Bft) SO 135 3,2 C 7,8 C 0,0 km/h (0 Bft)
24.11.2014 18:35 4,8 C 88 % 1024,2 hPa 0,0 l/m 0,0 km/h (0 Bft) SO 135 3,0 C 7,8 C 0,0 km/h (0 Bft)
24.11.2014 18:40 4,6 C 88 % 1024,2 hPa 0,0 l/m 0,0 km/h (0 Bft) SO 135 2,8 C 7,8 C 0,0 km/h (0 Bft)
24.11.2014 18:45 4,5 C 88 % 1024,2 hPa 0,0 l/m 0,0 km/h (0 Bft) SO 135 2,7 C 7,8 C 0,0 km/h (0 Bft)
24.11.2014 18:50 4,5 C 88 % 1024,2 hPa 0,0 l/m 0,0 km/h (0 Bft) SO 135 2,7 C 7,8 C 0,0 km/h (0 Bft)
24.11.2014 18:55 4,9 C 89 % 1024,2 hPa 0,0 l/m 0,0 km/h (0 Bft) SO 135 3,2 C 7,8 C 0,0 km/h (0 Bft)
24.11.2014 19:00 5,7 C 89 % 1024,4 hPa 0,0 l/m 0,0 km/h (0 Bft) SO 135 4,0 C 7,8 C 0,0 km/h (0 Bft)
24.11.2014 19:05 5,6 C 90 % 1024,4 hPa 0,0 l/m 0,0 km/h (0 Bft) SO 135 4,1 C 7,8 C 0,0 km/h (0 Bft)
24.11.2014 19:10 5,6 C 90 % 1024,4 hPa 0,0 l/m 0,0 km/h (0 Bft) SO 135 4,1 C 7,8 C 0,0 km/h (0 Bft)
24.11.2014 19:15 5,6 C 90 % 1024,4 hPa 0,0 l/m 0,0 km/h (0 Bft) SO 135 4,1 C 7,8 C 0,0 km/h (0 Bft)
24.11.2014 19:20 4,6 C 90 % 1024,7 hPa 0,0 l/m 0,0 km/h (0 Bft) SO 135 3,1 C 7,8 C 0,0 km/h (0 Bft)
24.11.2014 19:25 4,9 C 90 % 1024,7 hPa 0,0 l/m 0,0 km/h (0 Bft) SO 135 3,4 C 7,8 C 0,0 km/h (0 Bft)
24.11.2014 19:30 4,6 C 90 % 1024,7 hPa 0,0 l/m 0,0 km/h (0 Bft) SO 135 3,1 C 7,8 C 0,0 km/h (0 Bft)
24.11.2014 19:35 4,5 C 90 % 1024,7 hPa 0,0 l/m 0,0 km/h (0 Bft) SO 135 3,0 C 7,8 C 0,0 km/h (0 Bft)
24.11.2014 19:40 5,3 C 91 % 1024,7 hPa 0,0 l/m 0,0 km/h (0 Bft) SO 135 4,0 C 7,8 C 0,0 km/h (0 Bft)
24.11.2014 19:45 5,5 C 91 % 1024,7 hPa 0,0 l/m 0,0 km/h (0 Bft) SO 135 4,2 C 7,8 C 0,0 km/h (0 Bft)
24.11.2014 19:50 5,3 C 91 % 1024,7 hPa 0,0 l/m 0,0 km/h (0 Bft) SO 135 4,0 C 7,8 C 0,0 km/h (0 Bft)
24.11.2014 19:55 5,5 C 91 % 1024,9 hPa 0,0 l/m 0,0 km/h (0 Bft) SO 135 4,2 C 7,8 C 0,0 km/h (0 Bft)
24.11.2014 20:00 5,6 C 91 % 1024,9 hPa 0,0 l/m 0,0 km/h (0 Bft) SO 135 4,2 C 7,8 C 0,0 km/h (0 Bft)
24.11.2014 20:05 5,7 C 91 % 1024,9 hPa 0,0 l/m 0,0 km/h (0 Bft) SO 135 4,3 C 7,8 C 0,0 km/h (0 Bft)
24.11.2014 20:10 5,8 C 92 % 1024,9 hPa 0,0 l/m 0,0 km/h (0 Bft) SO 135 4,6 C 7,8 C 0,0 km/h (0 Bft)
24.11.2014 20:15 5,9 C 92 % 1024,9 hPa 0,0 l/m 0,0 km/h (0 Bft) SO 135 4,7 C 7,8 C 0,0 km/h (0 Bft)
24.11.2014 20:20 6,1 C 90 % 1024,9 hPa 0,0 l/m 0,0 km/h (0 Bft) SO 135 4,6 C 7,8 C 0,0 km/h (0 Bft)
24.11.2014 20:25 6,0 C 90 % 1024,9 hPa 0,0 l/m 0,0 km/h (0 Bft) SO 135 4,5 C 7,8 C 0,0 km/h (0 Bft)
24.11.2014 20:30 5,9 C 92 % 1024,9 hPa 0,0 l/m 0,0 km/h (0 Bft) SO 135 4,7 C 7,8 C 0,0 km/h (0 Bft)
24.11.2014 20:35 5,9 C 92 % 1024,9 hPa 0,0 l/m 0,0 km/h (0 Bft) SO 135 4,7 C 7,8 C 0,0 km/h (0 Bft)
24.11.2014 20:40 6,0 C 90 % 1024,9 hPa 0,0 l/m 0,0 km/h (0 Bft) SO 135 4,5 C 7,8 C 0,0 km/h (0 Bft)
24.11.2014 20:45 5,9 C 92 % 1024,9 hPa 0,0 l/m 0,0 km/h (0 Bft) SO 135 4,7 C 7,8 C 0,0 km/h (0 Bft)
24.11.2014 20:50 5,9 C 92 % 1024,9 hPa 0,0 l/m 0,0 km/h (0 Bft) SO 135 4,7 C 7,8 C 0,0 km/h (0 Bft)
24.11.2014 20:55 5,9 C 92 % 1024,9 hPa 0,0 l/m 0,0 km/h (0 Bft) SO 135 4,7 C 7,8 C 0,0 km/h (0 Bft)
24.11.2014 21:00 5,9 C 92 % 1024,9 hPa 0,0 l/m 0,0 km/h (0 Bft) SO 135 4,7 C 7,8 C 0,0 km/h (0 Bft)
24.11.2014 21:05 6,0 C 90 % 1024,9 hPa 0,0 l/m 0,0 km/h (0 Bft) SO 135 4,5 C 7,8 C 0,0 km/h (0 Bft)
24.11.2014 21:10 6,0 C 90 % 1024,9 hPa 0,0 l/m 0,0 km/h (0 Bft) SO 135 4,5 C 7,8 C 0,0 km/h (0 Bft)
24.11.2014 21:15 6,0 C 90 % 1024,9 hPa 0,0 l/m 0,0 km/h (0 Bft) SO 135 4,5 C 7,8 C 0,0 km/h (0 Bft)
24.11.2014 21:20 6,0 C 90 % 1024,9 hPa 0,0 l/m 0,0 km/h (0 Bft) SO 135 4,5 C 7,8 C 0,0 km/h (0 Bft)
24.11.2014 21:25 5,9 C 92 % 1024,9 hPa 0,0 l/m 0,0 km/h (0 Bft) SO 135 4,7 C 7,8 C 0,0 km/h (0 Bft)
24.11.2014 21:30 5,8 C 92 % 1024,9 hPa 0,0 l/m 0,0 km/h (0 Bft) SO 135 4,6 C 7,8 C 0,0 km/h (0 Bft)
24.11.2014 21:35 5,3 C 92 % 1024,8 hPa 0,0 l/m 0,0 km/h (0 Bft) SO 135 4,1 C 7,8 C 0,0 km/h (0 Bft)
24.11.2014 21:40 5,6 C 92 % 1024,8 hPa 0,0 l/m 0,0 km/h (0 Bft) SO 135 4,4 C 7,8 C 0,0 km/h (0 Bft)
24.11.2014 21:45 5,3 C 92 % 1024,8 hPa 0,0 l/m 0,0 km/h (0 Bft) SO 135 4,1 C 7,8 C 0,0 km/h (0 Bft)
24.11.2014 21:50 4,8 C 92 % 1024,8 hPa 0,0 l/m 0,0 km/h (0 Bft) SO 135 3,6 C 7,8 C 0,0 km/h (0 Bft)
24.11.2014 21:55 4,6 C 92 % 1024,6 hPa 0,0 l/m 0,0 km/h (0 Bft) SO 135 3,4 C 7,8 C 0,0 km/h (0 Bft)
24.11.2014 22:00 4,6 C 92 % 1024,6 hPa 0,0 l/m 0,0 km/h (0 Bft) SO 135 3,4 C 7,8 C 0,0 km/h (0 Bft)
24.11.2014 22:05 4,6 C 92 % 1024,6 hPa 0,0 l/m 0,0 km/h (0 Bft) SO 135 3,4 C 7,8 C 0,0 km/h (0 Bft)
24.11.2014 22:10 4,2 C 92 % 1024,6 hPa 0,0 l/m 0,0 km/h (0 Bft) SO 135 3,0 C 7,8 C 0,0 km/h (0 Bft)
24.11.2014 22:15 4,1 C 92 % 1024,6 hPa 0,0 l/m 0,0 km/h (0 Bft) SO 135 2,9 C 7,8 C 0,0 km/h (0 Bft)
24.11.2014 22:20 3,8 C 92 % 1024,6 hPa 0,0 l/m 0,0 km/h (0 Bft) SO 135 2,6 C 7,8 C 0,0 km/h (0 Bft)
24.11.2014 22:25 3,6 C 92 % 1024,6 hPa 0,0 l/m 0,0 km/h (0 Bft) SO 135 2,4 C 7,8 C 0,0 km/h (0 Bft)
24.11.2014 22:30 3,7 C 92 % 1024,6 hPa 0,0 l/m 0,0 km/h (0 Bft) SO 135 2,5 C 7,8 C 0,0 km/h (0 Bft)
24.11.2014 22:35 3,6 C 92 % 1024,3 hPa 0,0 l/m 0,0 km/h (0 Bft) SO 135 2,4 C 7,8 C 0,0 km/h (0 Bft)
24.11.2014 22:40 3,3 C 92 % 1024,3 hPa 0,0 l/m 0,0 km/h (0 Bft) SO 135 2,1 C 7,8 C 0,0 km/h (0 Bft)
24.11.2014 22:45 3,5 C 92 % 1024,3 hPa 0,0 l/m 0,0 km/h (0 Bft) SO 135 2,3 C 7,8 C 0,0 km/h (0 Bft)
24.11.2014 22:50 4,3 C 92 % 1024,3 hPa 0,0 l/m 0,0 km/h (0 Bft) SO 135 3,1 C 7,8 C 0,0 km/h (0 Bft)
24.11.2014 22:55 4,2 C 93 % 1024,6 hPa 0,0 l/m 0,0 km/h (0 Bft) SO 135 3,2 C 7,8 C 0,0 km/h (0 Bft)
24.11.2014 23:00 4,5 C 93 % 1024,6 hPa 0,0 l/m 0,0 km/h (0 Bft) SO 135 3,5 C 7,8 C 0,0 km/h (0 Bft)
24.11.2014 23:05 4,2 C 93 % 1024,6 hPa 0,0 l/m 0,0 km/h (0 Bft) SO 135 3,2 C 7,8 C 0,0 km/h (0 Bft)
24.11.2014 23:10 3,9 C 93 % 1024,6 hPa 0,0 l/m 0,0 km/h (0 Bft) SO 135 2,9 C 7,8 C 0,0 km/h (0 Bft)
24.11.2014 23:15 3,2 C 93 % 1024,6 hPa 0,0 l/m 0,0 km/h (0 Bft) SO 135 2,2 C 7,8 C 0,0 km/h (0 Bft)
24.11.2014 23:20 3,0 C 93 % 1024,6 hPa 0,0 l/m 0,0 km/h (0 Bft) SO 135 2,0 C 7,8 C 0,0 km/h (0 Bft)
24.11.2014 23:25 3,2 C 93 % 1024,6 hPa 0,0 l/m 0,0 km/h (0 Bft) SO 135 2,2 C 7,8 C 0,0 km/h (0 Bft)
24.11.2014 23:30 2,8 C 93 % 1024,6 hPa 0,0 l/m 0,0 km/h (0 Bft) SO 135 1,8 C 7,8 C 0,0 km/h (0 Bft)
24.11.2014 23:35 2,9 C 94 % 1024,5 hPa 0,0 l/m 0,0 km/h (0 Bft) SO 135 2,0 C 7,8 C 0,0 km/h (0 Bft)
24.11.2014 23:40 3,4 C 93 % 1024,5 hPa 0,0 l/m 0,0 km/h (0 Bft) SO 135 2,4 C 7,8 C 0,0 km/h (0 Bft)
24.11.2014 23:45 3,4 C 93 % 1024,5 hPa 0,0 l/m 0,0 km/h (0 Bft) SO 135 2,4 C 7,8 C 0,0 km/h (0 Bft)
24.11.2014 23:50 3,4 C 93 % 1024,5 hPa 0,0 l/m 0,0 km/h (0 Bft) SO 135 2,4 C 7,8 C 0,0 km/h (0 Bft)
24.11.2014 23:55 3,0 C 93 % 1024,5 hPa 0,0 l/m 0,0 km/h (0 Bft) SO 135 2,0 C 7,8 C 0,0 km/h (0 Bft)
_ Min-Zeit 00:10 14:20 04:55 - 23:55 - - 23:30 23:55 23:55
Minimum _ 2,6 C 57 % 1021,9 hPa - 0,0 km/h (0 Bft) - - 1,8 C 7,8 C 0,0 km/h (0 Bft)
_ Max-Zeit 04:00 01:00 21:30 23:55 23:55 - - 03:55 23:55 23:55
Maximum _ 15,5 C 97 % 1024,9 hPa 0,0 l/m 0,0 km/h
SO (0 Bft)
- - 9,4 C 7,8 C 0,0 km/h
SO (0 Bft)
Durchschnitt _ 8,1 C 83 % 1023,5 hPa #0,0 l/m 0,0 km/h (0 Bft) - - - 5,3 C 7,8 C 0,0 km/h (0 Bft)